Naval Amphibious Base, Virginia
Current Conditions -  °F | °C
As of 4:51 AM on Sunday 25 Jan 2015 (Local Time) from KORF Reporting Station
Clear Clear  
Wind Chill: 30°   Ceiling: Unl
Heat Index: 36°   Visibility: 10mi
Dew Point: 27°   Wind: 7mph
Humidity: 70%   Direction: 260°W
Pressure: 29.82"   Gusts: NA
Location:  36.9184°N, 76.1571°W
Report Text: KORF 250951Z AUTO 26006KT 10SM CLR 02/M03 A2982 RMK AO2 SLP097 T00221028 TSNO
Loading
Personal Weather Stations






























Interactive Weather Map New forecast layout! Learn more

10-Day Weather Forecast

Advertisements
Track Severe Weather on mobile